KJAU

Campbell County Airport

Jacksboro, Tennessee, USA
METAR KJAU 230755Z AUTO 00000KT 8SM FEW037 SCT045 SCT050 13/13 A3038 RMK A01
Observed Flight Rules
Feb-23 @ 07:55 UTC (29 minutes ago) Visual Flight Rules
Wind Visibility Clouds
Calm 8 miles
  • Few at 3,700' AGL
  • Scattered at 4,500' AGL
  • Scattered at 5,000' AGL
Temperatures Readings
Current 13°C / 55°F
Dewpoint 13°C / 55°F
Humidity 100%
Altimeter 30.38" Hg
Pressure 1029 hPa
Elevation 360
METAR KJAU 230755Z AUTO 00000KT 8SM FEW037 SCT045 SCT050 13/13 A3038 RMK A01
Observed Flight Rules
Feb-23 @ 07:55 UTC
(29 minutes ago)
VFR
Wind Visibility
Calm 8 miles
Clouds
  • Few at 3,700' AGL
  • Scattered at 4,500' AGL
  • Scattered at 5,000' AGL
Temperature Dewpoint
13°C / 55°F 13°C / 55°F
Humidity Altimeter Pressure
100% 30.38" Hg 1029 hPa